sensor_id;sensor_type;location;lat;lon;timestamp;P1;durP1;ratioP1;P2;durP2;ratioP2
6135;SDS011;24008;42.664;23.372;2022-12-22T00:01:09;133.47;;;61.20;;
6135;SDS011;24008;42.664;23.372;2022-12-22T00:03:54;141.67;;;64.70;;
6135;SDS011;24008;42.664;23.372;2022-12-22T00:06:38;136.07;;;63.73;;
6135;SDS011;24008;42.664;23.372;2022-12-22T00:09:22;141.90;;;62.73;;
6135;SDS011;24008;42.664;23.372;2022-12-22T00:12:08;149.87;;;69.63;;
6135;SDS011;24008;42.664;23.372;2022-12-22T00:14:54;114.00;;;53.97;;
6135;SDS011;24008;42.664;23.372;2022-12-22T00:17:38;111.03;;;51.07;;
6135;SDS011;24008;42.664;23.372;2022-12-22T00:20:23;145.53;;;62.97;;
6135;SDS011;24008;42.664;23.372;2022-12-22T00:23:08;129.83;;;61.77;;
6135;SDS011;24008;42.664;23.372;2022-12-22T00:25:53;103.10;;;50.57;;
6135;SDS011;24008;42.664;23.372;2022-12-22T00:28:40;113.90;;;54.63;;
6135;SDS011;24008;42.664;23.372;2022-12-22T00:31:25;108.13;;;52.33;;
6135;SDS011;24008;42.664;23.372;2022-12-22T00:34:11;100.47;;;46.93;;
6135;SDS011;24008;42.664;23.372;2022-12-22T00:36:57;91.93;;;46.57;;
6135;SDS011;24008;42.664;23.372;2022-12-22T00:39:41;91.17;;;45.77;;
6135;SDS011;24008;42.664;23.372;2022-12-22T00:42:25;93.17;;;46.90;;
6135;SDS011;24008;42.664;23.372;2022-12-22T00:45:11;110.27;;;51.43;;
6135;SDS011;24008;42.664;23.372;2022-12-22T00:47:55;86.50;;;43.40;;
6135;SDS011;24008;42.664;23.372;2022-12-22T00:50:41;86.20;;;43.77;;
6135;SDS011;24008;42.664;23.372;2022-12-22T00:53:25;86.97;;;44.30;;
6135;SDS011;24008;42.664;23.372;2022-12-22T00:56:09;94.63;;;44.27;;
6135;SDS011;24008;42.664;23.372;2022-12-22T00:58:54;96.20;;;44.63;;
6135;SDS011;24008;42.664;23.372;2022-12-22T01:01:41;96.43;;;45.13;;
6135;SDS011;24008;42.664;23.372;2022-12-22T01:04:26;83.80;;;43.90;;
6135;SDS011;24008;42.664;23.372;2022-12-22T01:07:10;94.03;;;44.10;;
6135;SDS011;24008;42.664;23.372;2022-12-22T01:09:56;96.07;;;45.47;;
6135;SDS011;24008;42.664;23.372;2022-12-22T01:12:41;93.70;;;44.90;;
6135;SDS011;24008;42.664;23.372;2022-12-22T01:15:26;94.00;;;43.33;;
6135;SDS011;24008;42.664;23.372;2022-12-22T01:18:13;84.90;;;41.03;;
6135;SDS011;24008;42.664;23.372;2022-12-22T01:20:58;76.47;;;39.57;;
6135;SDS011;24008;42.664;23.372;2022-12-22T01:23:42;78.17;;;40.13;;
6135;SDS011;24008;42.664;23.372;2022-12-22T01:26:27;81.73;;;41.87;;
6135;SDS011;24008;42.664;23.372;2022-12-22T01:29:12;91.87;;;45.33;;
6135;SDS011;24008;42.664;23.372;2022-12-22T01:31:56;78.03;;;40.67;;
6135;SDS011;24008;42.664;23.372;2022-12-22T01:34:42;79.03;;;39.70;;
6135;SDS011;24008;42.664;23.372;2022-12-22T01:37:27;71.33;;;37.90;;
6135;SDS011;24008;42.664;23.372;2022-12-22T01:40:12;76.10;;;39.20;;
6135;SDS011;24008;42.664;23.372;2022-12-22T01:42:59;77.37;;;38.03;;
6135;SDS011;24008;42.664;23.372;2022-12-22T01:45:43;83.83;;;42.60;;
6135;SDS011;24008;42.664;23.372;2022-12-22T01:48:27;70.77;;;37.97;;
6135;SDS011;24008;42.664;23.372;2022-12-22T01:51:17;81.27;;;37.83;;
6135;SDS011;24008;42.664;23.372;2022-12-22T01:54:03;75.17;;;38.87;;
6135;SDS011;24008;42.664;23.372;2022-12-22T01:56:48;68.97;;;37.63;;
6135;SDS011;24008;42.664;23.372;2022-12-22T01:59:34;74.70;;;37.53;;
6135;SDS011;24008;42.664;23.372;2022-12-22T02:02:18;70.20;;;35.47;;
6135;SDS011;24008;42.664;23.372;2022-12-22T02:05:04;70.00;;;35.83;;
6135;SDS011;24008;42.664;23.372;2022-12-22T02:08:04;80.83;;;40.27;;
6135;SDS011;24008;42.664;23.372;2022-12-22T02:11:13;89.20;;;42.50;;
6135;SDS011;24008;42.664;23.372;2022-12-22T02:14:13;91.27;;;44.17;;
6135;SDS011;24008;42.664;23.372;2022-12-22T02:17:05;117.93;;;52.73;;
6135;SDS011;24008;42.664;23.372;2022-12-22T02:23:13;106.90;;;49.10;;
6135;SDS011;24008;42.664;23.372;2022-12-22T02:26:24;115.27;;;53.50;;
6135;SDS011;24008;42.664;23.372;2022-12-22T02:29:11;104.13;;;50.03;;
6135;SDS011;24008;42.664;23.372;2022-12-22T02:31:57;115.10;;;53.20;;
6135;SDS011;24008;42.664;23.372;2022-12-22T02:34:41;129.53;;;61.53;;
6135;SDS011;24008;42.664;23.372;2022-12-22T02:37:27;101.03;;;48.23;;
6135;SDS011;24008;42.664;23.372;2022-12-22T02:40:20;92.53;;;45.20;;
6135;SDS011;24008;42.664;23.372;2022-12-22T02:43:15;100.17;;;49.77;;
6135;SDS011;24008;42.664;23.372;2022-12-22T02:46:13;137.23;;;61.10;;
6135;SDS011;24008;42.664;23.372;2022-12-22T02:49:05;122.40;;;57.80;;
6135;SDS011;24008;42.664;23.372;2022-12-22T02:51:59;122.30;;;53.80;;
6135;SDS011;24008;42.664;23.372;2022-12-22T02:54:52;108.53;;;50.07;;
6135;SDS011;24008;42.664;23.372;2022-12-22T02:57:36;108.90;;;53.30;;
6135;SDS011;24008;42.664;23.372;2022-12-22T03:00:22;99.67;;;48.67;;
6135;SDS011;24008;42.664;23.372;2022-12-22T03:03:06;99.57;;;47.33;;
6135;SDS011;24008;42.664;23.372;2022-12-22T03:05:51;89.23;;;45.10;;
6135;SDS011;24008;42.664;23.372;2022-12-22T03:08:35;99.23;;;49.00;;
6135;SDS011;24008;42.664;23.372;2022-12-22T03:11:19;101.10;;;47.23;;
6135;SDS011;24008;42.664;23.372;2022-12-22T03:14:03;105.23;;;47.07;;
6135;SDS011;24008;42.664;23.372;2022-12-22T03:16:49;91.80;;;46.30;;
6135;SDS011;24008;42.664;23.372;2022-12-22T03:19:33;99.50;;;47.97;;
6135;SDS011;24008;42.664;23.372;2022-12-22T03:22:18;91.67;;;46.97;;
6135;SDS011;24008;42.664;23.372;2022-12-22T03:25:02;102.60;;;48.73;;
6135;SDS011;24008;42.664;23.372;2022-12-22T03:27:48;113.87;;;54.13;;
6135;SDS011;24008;42.664;23.372;2022-12-22T03:30:15;96.10;;;46.33;;
6135;SDS011;24008;42.664;23.372;2022-12-22T03:32:43;118.73;;;53.67;;
6135;SDS011;24008;42.664;23.372;2022-12-22T03:35:10;87.13;;;46.17;;
6135;SDS011;24008;42.664;23.372;2022-12-22T03:37:36;95.93;;;47.87;;
6135;SDS011;24008;42.664;23.372;2022-12-22T03:40:03;99.83;;;48.93;;
6135;SDS011;24008;42.664;23.372;2022-12-22T03:42:31;102.90;;;48.77;;
6135;SDS011;24008;42.664;23.372;2022-12-22T03:45:15;93.37;;;48.13;;
6135;SDS011;24008;42.664;23.372;2022-12-22T03:48:01;97.90;;;47.60;;
6135;SDS011;24008;42.664;23.372;2022-12-22T03:50:27;105.10;;;46.60;;
6135;SDS011;24008;42.664;23.372;2022-12-22T03:52:54;92.87;;;45.90;;
6135;SDS011;24008;42.664;23.372;2022-12-22T03:55:21;86.03;;;44.53;;
6135;SDS011;24008;42.664;23.372;2022-12-22T03:57:48;86.63;;;42.77;;
6135;SDS011;24008;42.664;23.372;2022-12-22T04:00:15;85.87;;;43.03;;
6135;SDS011;24008;42.664;23.372;2022-12-22T04:02:42;83.60;;;42.97;;
6135;SDS011;24008;42.664;23.372;2022-12-22T04:05:10;91.23;;;47.23;;
6135;SDS011;24008;42.664;23.372;2022-12-22T04:07:37;87.07;;;41.53;;
6135;SDS011;24008;42.664;23.372;2022-12-22T04:10:04;85.70;;;42.23;;
6135;SDS011;24008;42.664;23.372;2022-12-22T04:12:50;87.90;;;43.23;;
6135;SDS011;24008;42.664;23.372;2022-12-22T04:15:19;108.30;;;49.27;;
6135;SDS011;24008;42.664;23.372;2022-12-22T04:17:46;83.70;;;43.20;;
6135;SDS011;24008;42.664;23.372;2022-12-22T04:20:15;90.03;;;44.63;;
6135;SDS011;24008;42.664;23.372;2022-12-22T04:22:42;98.27;;;45.87;;
6135;SDS011;24008;42.664;23.372;2022-12-22T04:25:09;94.97;;;45.77;;
6135;SDS011;24008;42.664;23.372;2022-12-22T04:27:36;88.37;;;43.57;;
6135;SDS011;24008;42.664;23.372;2022-12-22T04:30:03;86.33;;;43.27;;
6135;SDS011;24008;42.664;23.372;2022-12-22T04:32:31;87.20;;;44.43;;
6135;SDS011;24008;42.664;23.372;2022-12-22T04:34:58;134.57;;;61.27;;
6135;SDS011;24008;42.664;23.372;2022-12-22T04:37:26;143.97;;;65.07;;
6135;SDS011;24008;42.664;23.372;2022-12-22T04:39:52;181.70;;;79.23;;
6135;SDS011;24008;42.664;23.372;2022-12-22T04:42:19;186.80;;;85.30;;
6135;SDS011;24008;42.664;23.372;2022-12-22T04:44:46;171.40;;;77.87;;
6135;SDS011;24008;42.664;23.372;2022-12-22T04:47:13;148.50;;;64.70;;
6135;SDS011;24008;42.664;23.372;2022-12-22T04:49:40;120.53;;;56.90;;
6135;SDS011;24008;42.664;23.372;2022-12-22T04:52:07;100.07;;;49.10;;
6135;SDS011;24008;42.664;23.372;2022-12-22T04:54:35;110.87;;;51.73;;
6135;SDS011;24008;42.664;23.372;2022-12-22T04:57:02;106.07;;;51.13;;
6135;SDS011;24008;42.664;23.372;2022-12-22T04:59:29;156.47;;;70.27;;
6135;SDS011;24008;42.664;23.372;2022-12-22T05:01:55;128.77;;;61.03;;
6135;SDS011;24008;42.664;23.372;2022-12-22T05:04:22;139.73;;;64.60;;
6135;SDS011;24008;42.664;23.372;2022-12-22T05:06:49;133.00;;;58.57;;
6135;SDS011;24008;42.664;23.372;2022-12-22T05:09:16;158.17;;;72.93;;
6135;SDS011;24008;42.664;23.372;2022-12-22T05:11:44;158.80;;;72.30;;
6135;SDS011;24008;42.664;23.372;2022-12-22T05:14:11;154.23;;;71.23;;
6135;SDS011;24008;42.664;23.372;2022-12-22T05:16:38;140.53;;;63.47;;
6135;SDS011;24008;42.664;23.372;2022-12-22T05:19:05;148.73;;;64.97;;
6135;SDS011;24008;42.664;23.372;2022-12-22T05:21:51;152.37;;;68.97;;
6135;SDS011;24008;42.664;23.372;2022-12-22T05:24:36;150.20;;;69.60;;
6135;SDS011;24008;42.664;23.372;2022-12-22T05:27:04;158.47;;;72.43;;
6135;SDS011;24008;42.664;23.372;2022-12-22T05:29:31;132.73;;;63.00;;
6135;SDS011;24008;42.664;23.372;2022-12-22T05:31:58;138.37;;;61.03;;
6135;SDS011;24008;42.664;23.372;2022-12-22T05:34:25;140.87;;;66.20;;
6135;SDS011;24008;42.664;23.372;2022-12-22T05:36:51;143.03;;;65.53;;
6135;SDS011;24008;42.664;23.372;2022-12-22T05:39:18;136.67;;;64.40;;
6135;SDS011;24008;42.664;23.372;2022-12-22T05:41:45;144.20;;;68.57;;
6135;SDS011;24008;42.664;23.372;2022-12-22T05:44:13;153.60;;;68.80;;
6135;SDS011;24008;42.664;23.372;2022-12-22T05:46:40;142.77;;;67.67;;
6135;SDS011;24008;42.664;23.372;2022-12-22T05:49:07;145.10;;;65.57;;
6135;SDS011;24008;42.664;23.372;2022-12-22T05:51:34;144.77;;;65.90;;
6135;SDS011;24008;42.664;23.372;2022-12-22T05:54:00;139.37;;;66.63;;
6135;SDS011;24008;42.664;23.372;2022-12-22T05:56:27;159.07;;;71.93;;
6135;SDS011;24008;42.664;23.372;2022-12-22T05:58:54;149.53;;;67.10;;
6135;SDS011;24008;42.664;23.372;2022-12-22T06:01:22;147.50;;;66.00;;
6135;SDS011;24008;42.664;23.372;2022-12-22T06:03:49;147.17;;;67.97;;
6135;SDS011;24008;42.664;23.372;2022-12-22T06:06:16;137.73;;;66.47;;
6135;SDS011;24008;42.664;23.372;2022-12-22T06:08:43;161.97;;;74.13;;
6135;SDS011;24008;42.664;23.372;2022-12-22T06:11:09;149.83;;;69.67;;
6135;SDS011;24008;42.664;23.372;2022-12-22T06:13:36;157.23;;;70.53;;
6135;SDS011;24008;42.664;23.372;2022-12-22T06:16:03;149.17;;;70.93;;
6135;SDS011;24008;42.664;23.372;2022-12-22T06:18:32;163.10;;;71.77;;
6135;SDS011;24008;42.664;23.372;2022-12-22T06:20:58;154.13;;;70.27;;
6135;SDS011;24008;42.664;23.372;2022-12-22T06:23:25;157.20;;;67.80;;
6135;SDS011;24008;42.664;23.372;2022-12-22T06:25:52;157.60;;;68.17;;
6135;SDS011;24008;42.664;23.372;2022-12-22T06:28:20;144.70;;;66.33;;
6135;SDS011;24008;42.664;23.372;2022-12-22T06:30:47;124.73;;;59.40;;
6135;SDS011;24008;42.664;23.372;2022-12-22T06:33:14;140.00;;;63.23;;
6135;SDS011;24008;42.664;23.372;2022-12-22T06:35:42;148.70;;;68.43;;
6135;SDS011;24008;42.664;23.372;2022-12-22T06:38:10;146.73;;;69.67;;
6135;SDS011;24008;42.664;23.372;2022-12-22T06:40:37;142.73;;;67.30;;
6135;SDS011;24008;42.664;23.372;2022-12-22T06:43:04;135.53;;;64.63;;
6135;SDS011;24008;42.664;23.372;2022-12-22T06:45:32;131.80;;;64.37;;
6135;SDS011;24008;42.664;23.372;2022-12-22T06:47:59;133.50;;;65.37;;
6135;SDS011;24008;42.664;23.372;2022-12-22T06:50:26;133.83;;;64.07;;
6135;SDS011;24008;42.664;23.372;2022-12-22T06:52:55;131.50;;;62.57;;
6135;SDS011;24008;42.664;23.372;2022-12-22T06:55:22;135.63;;;64.47;;
6135;SDS011;24008;42.664;23.372;2022-12-22T06:57:49;134.87;;;63.90;;
6135;SDS011;24008;42.664;23.372;2022-12-22T07:00:16;138.37;;;66.00;;
6135;SDS011;24008;42.664;23.372;2022-12-22T07:02:43;131.67;;;65.13;;
6135;SDS011;24008;42.664;23.372;2022-12-22T07:05:10;133.00;;;64.53;;
6135;SDS011;24008;42.664;23.372;2022-12-22T07:07:36;125.20;;;62.03;;
6135;SDS011;24008;42.664;23.372;2022-12-22T07:10:05;127.77;;;63.43;;
6135;SDS011;24008;42.664;23.372;2022-12-22T07:12:33;122.60;;;60.70;;
6135;SDS011;24008;42.664;23.372;2022-12-22T07:14:59;106.30;;;55.90;;
6135;SDS011;24008;42.664;23.372;2022-12-22T07:17:26;121.30;;;60.37;;
6135;SDS011;24008;42.664;23.372;2022-12-22T07:19:53;112.83;;;59.67;;
6135;SDS011;24008;42.664;23.372;2022-12-22T07:22:20;116.60;;;60.43;;
6135;SDS011;24008;42.664;23.372;2022-12-22T07:24:47;130.80;;;65.97;;
6135;SDS011;24008;42.664;23.372;2022-12-22T07:27:15;125.43;;;60.00;;
6135;SDS011;24008;42.664;23.372;2022-12-22T07:29:42;113.30;;;59.03;;
6135;SDS011;24008;42.664;23.372;2022-12-22T07:32:09;118.77;;;56.73;;
6135;SDS011;24008;42.664;23.372;2022-12-22T07:34:37;115.50;;;55.47;;
6135;SDS011;24008;42.664;23.372;2022-12-22T07:37:03;125.20;;;61.20;;
6135;SDS011;24008;42.664;23.372;2022-12-22T07:39:33;115.90;;;59.70;;
6135;SDS011;24008;42.664;23.372;2022-12-22T07:42:10;123.97;;;55.90;;
6135;SDS011;24008;42.664;23.372;2022-12-22T07:44:56;100.70;;;52.37;;
6135;SDS011;24008;42.664;23.372;2022-12-22T07:47:23;100.87;;;52.27;;
6135;SDS011;24008;42.664;23.372;2022-12-22T07:49:50;104.50;;;52.50;;
6135;SDS011;24008;42.664;23.372;2022-12-22T07:52:34;99.07;;;51.70;;
6135;SDS011;24008;42.664;23.372;2022-12-22T07:55:01;101.33;;;50.60;;
6135;SDS011;24008;42.664;23.372;2022-12-22T07:57:28;105.73;;;53.23;;
6135;SDS011;24008;42.664;23.372;2022-12-22T07:59:56;82.87;;;49.10;;
6135;SDS011;24008;42.664;23.372;2022-12-22T08:02:23;76.00;;;44.00;;
6135;SDS011;24008;42.664;23.372;2022-12-22T08:04:49;79.97;;;44.17;;
6135;SDS011;24008;42.664;23.372;2022-12-22T08:07:16;83.23;;;44.77;;
6135;SDS011;24008;42.664;23.372;2022-12-22T08:09:43;91.40;;;47.30;;
6135;SDS011;24008;42.664;23.372;2022-12-22T08:12:10;86.23;;;47.83;;
6135;SDS011;24008;42.664;23.372;2022-12-22T08:14:37;80.47;;;47.37;;
6135;SDS011;24008;42.664;23.372;2022-12-22T08:17:05;86.70;;;47.50;;
6135;SDS011;24008;42.664;23.372;2022-12-22T08:19:32;99.03;;;50.67;;
6135;SDS011;24008;42.664;23.372;2022-12-22T08:21:59;84.87;;;48.00;;
6135;SDS011;24008;42.664;23.372;2022-12-22T08:24:26;88.73;;;51.67;;
6135;SDS011;24008;42.664;23.372;2022-12-22T08:26:53;95.60;;;53.50;;
6135;SDS011;24008;42.664;23.372;2022-12-22T08:29:25;93.20;;;53.87;;
6135;SDS011;24008;42.664;23.372;2022-12-22T08:31:54;98.83;;;52.57;;
6135;SDS011;24008;42.664;23.372;2022-12-22T08:34:23;98.23;;;52.07;;
6135;SDS011;24008;42.664;23.372;2022-12-22T08:36:50;94.30;;;52.90;;
6135;SDS011;24008;42.664;23.372;2022-12-22T08:39:21;96.13;;;52.17;;
6135;SDS011;24008;42.664;23.372;2022-12-22T08:41:51;93.80;;;52.50;;
6135;SDS011;24008;42.664;23.372;2022-12-22T08:44:19;95.17;;;52.47;;
6135;SDS011;24008;42.664;23.372;2022-12-22T08:46:47;95.23;;;52.83;;
6135;SDS011;24008;42.664;23.372;2022-12-22T08:49:14;97.67;;;52.33;;
6135;SDS011;24008;42.664;23.372;2022-12-22T08:51:43;90.53;;;52.03;;
6135;SDS011;24008;42.664;23.372;2022-12-22T08:54:11;84.73;;;50.00;;
6135;SDS011;24008;42.664;23.372;2022-12-22T08:56:38;85.70;;;49.47;;
6135;SDS011;24008;42.664;23.372;2022-12-22T08:59:05;86.43;;;49.03;;
6135;SDS011;24008;42.664;23.372;2022-12-22T09:01:33;75.23;;;41.80;;
6135;SDS011;24008;42.664;23.372;2022-12-22T09:04:03;71.43;;;42.40;;
6135;SDS011;24008;42.664;23.372;2022-12-22T09:06:31;66.37;;;41.13;;
6135;SDS011;24008;42.664;23.372;2022-12-22T09:09:00;63.33;;;40.43;;
6135;SDS011;24008;42.664;23.372;2022-12-22T09:11:28;69.63;;;39.43;;
6135;SDS011;24008;42.664;23.372;2022-12-22T09:13:56;62.23;;;39.57;;
6135;SDS011;24008;42.664;23.372;2022-12-22T09:16:25;72.97;;;39.53;;
6135;SDS011;24008;42.664;23.372;2022-12-22T09:18:53;70.77;;;39.13;;
6135;SDS011;24008;42.664;23.372;2022-12-22T09:21:21;69.07;;;39.60;;
6135;SDS011;24008;42.664;23.372;2022-12-22T09:23:48;75.50;;;40.27;;
6135;SDS011;24008;42.664;23.372;2022-12-22T09:26:17;74.70;;;40.60;;
6135;SDS011;24008;42.664;23.372;2022-12-22T09:28:45;68.20;;;41.00;;
6135;SDS011;24008;42.664;23.372;2022-12-22T09:31:13;76.03;;;42.90;;
6135;SDS011;24008;42.664;23.372;2022-12-22T09:33:40;81.87;;;42.30;;
6135;SDS011;24008;42.664;23.372;2022-12-22T09:36:07;64.57;;;41.10;;
6135;SDS011;24008;42.664;23.372;2022-12-22T09:38:36;75.17;;;41.97;;
6135;SDS011;24008;42.664;23.372;2022-12-22T09:41:07;77.40;;;42.10;;
6135;SDS011;24008;42.664;23.372;2022-12-22T09:43:36;77.47;;;41.43;;
6135;SDS011;24008;42.664;23.372;2022-12-22T09:46:03;65.57;;;40.67;;
6135;SDS011;24008;42.664;23.372;2022-12-22T09:48:33;71.37;;;41.40;;
6135;SDS011;24008;42.664;23.372;2022-12-22T09:51:01;73.07;;;41.20;;
6135;SDS011;24008;42.664;23.372;2022-12-22T09:53:29;67.37;;;40.97;;
6135;SDS011;24008;42.664;23.372;2022-12-22T09:55:57;69.80;;;41.57;;
6135;SDS011;24008;42.664;23.372;2022-12-22T09:58:25;69.10;;;41.93;;
6135;SDS011;24008;42.664;23.372;2022-12-22T10:00:59;71.10;;;42.70;;
6135;SDS011;24008;42.664;23.372;2022-12-22T10:03:46;72.87;;;43.37;;
6135;SDS011;24008;42.664;23.372;2022-12-22T10:06:20;69.53;;;41.40;;
6135;SDS011;24008;42.664;23.372;2022-12-22T10:08:54;69.80;;;42.00;;
6135;SDS011;24008;42.664;23.372;2022-12-22T10:11:21;70.27;;;41.30;;
6135;SDS011;24008;42.664;23.372;2022-12-22T10:13:48;66.73;;;42.33;;
6135;SDS011;24008;42.664;23.372;2022-12-22T10:16:18;72.33;;;41.37;;
6135;SDS011;24008;42.664;23.372;2022-12-22T10:18:57;66.13;;;42.07;;
6135;SDS011;24008;42.664;23.372;2022-12-22T10:21:25;75.37;;;43.97;;
6135;SDS011;24008;42.664;23.372;2022-12-22T10:23:52;70.53;;;42.47;;
6135;SDS011;24008;42.664;23.372;2022-12-22T10:26:20;73.07;;;43.93;;
6135;SDS011;24008;42.664;23.372;2022-12-22T10:28:49;81.37;;;43.37;;
6135;SDS011;24008;42.664;23.372;2022-12-22T10:31:21;84.80;;;44.07;;
6135;SDS011;24008;42.664;23.372;2022-12-22T10:33:50;76.70;;;43.67;;
6135;SDS011;24008;42.664;23.372;2022-12-22T10:36:20;76.77;;;42.10;;
6135;SDS011;24008;42.664;23.372;2022-12-22T10:39:00;72.40;;;43.00;;
6135;SDS011;24008;42.664;23.372;2022-12-22T10:41:30;79.07;;;42.60;;
6135;SDS011;24008;42.664;23.372;2022-12-22T10:43:58;83.30;;;45.27;;
6135;SDS011;24008;42.664;23.372;2022-12-22T10:46:30;82.80;;;43.97;;
6135;SDS011;24008;42.664;23.372;2022-12-22T10:49:07;80.37;;;43.33;;
6135;SDS011;24008;42.664;23.372;2022-12-22T10:51:38;69.77;;;42.10;;
6135;SDS011;24008;42.664;23.372;2022-12-22T10:54:05;79.27;;;45.27;;
6135;SDS011;24008;42.664;23.372;2022-12-22T10:56:33;82.07;;;44.03;;
6135;SDS011;24008;42.664;23.372;2022-12-22T10:59:12;84.67;;;44.77;;
6135;SDS011;24008;42.664;23.372;2022-12-22T11:01:45;72.83;;;44.50;;
6135;SDS011;24008;42.664;23.372;2022-12-22T11:04:16;79.27;;;43.27;;
6135;SDS011;24008;42.664;23.372;2022-12-22T11:06:47;76.67;;;43.07;;
6135;SDS011;24008;42.664;23.372;2022-12-22T11:09:15;74.43;;;41.80;;
6135;SDS011;24008;42.664;23.372;2022-12-22T11:11:43;73.63;;;41.83;;
6135;SDS011;24008;42.664;23.372;2022-12-22T11:14:17;81.33;;;42.27;;
6135;SDS011;24008;42.664;23.372;2022-12-22T11:16:55;77.17;;;41.77;;
6135;SDS011;24008;42.664;23.372;2022-12-22T11:19:39;75.17;;;42.23;;
6135;SDS011;24008;42.664;23.372;2022-12-22T11:22:19;74.53;;;42.73;;
6135;SDS011;24008;42.664;23.372;2022-12-22T11:25:00;82.50;;;42.67;;
6135;SDS011;24008;42.664;23.372;2022-12-22T11:27:41;75.57;;;42.53;;
6135;SDS011;24008;42.664;23.372;2022-12-22T11:30:18;78.73;;;41.67;;
6135;SDS011;24008;42.664;23.372;2022-12-22T11:35:57;78.87;;;43.67;;
6135;SDS011;24008;42.664;23.372;2022-12-22T11:38:31;76.87;;;42.93;;
6135;SDS011;24008;42.664;23.372;2022-12-22T11:41:12;76.70;;;42.93;;
6135;SDS011;24008;42.664;23.372;2022-12-22T11:43:57;77.73;;;42.80;;
6135;SDS011;24008;42.664;23.372;2022-12-22T11:46:33;84.00;;;43.07;;
6135;SDS011;24008;42.664;23.372;2022-12-22T11:49:21;93.23;;;43.50;;
6135;SDS011;24008;42.664;23.372;2022-12-22T11:52:10;73.90;;;42.73;;
6135;SDS011;24008;42.664;23.372;2022-12-22T11:55:05;85.60;;;43.73;;
6135;SDS011;24008;42.664;23.372;2022-12-22T11:57:42;86.40;;;43.37;;
6135;SDS011;24008;42.664;23.372;2022-12-22T12:00:20;89.13;;;43.70;;
6135;SDS011;24008;42.664;23.372;2022-12-22T12:06:03;78.97;;;43.07;;
6135;SDS011;24008;42.664;23.372;2022-12-22T12:08:47;83.07;;;43.57;;
6135;SDS011;24008;42.664;23.372;2022-12-22T12:11:26;76.40;;;43.40;;
6135;SDS011;24008;42.664;23.372;2022-12-22T12:14:03;81.07;;;43.87;;
6135;SDS011;24008;42.664;23.372;2022-12-22T12:16:42;74.13;;;42.07;;
6135;SDS011;24008;42.664;23.372;2022-12-22T12:19:27;78.27;;;43.57;;
6135;SDS011;24008;42.664;23.372;2022-12-22T12:22:17;78.47;;;44.07;;
6135;SDS011;24008;42.664;23.372;2022-12-22T12:24:59;76.20;;;43.10;;
6135;SDS011;24008;42.664;23.372;2022-12-22T12:30:21;79.13;;;43.17;;
6135;SDS011;24008;42.664;23.372;2022-12-22T12:32:51;84.47;;;43.67;;
6135;SDS011;24008;42.664;23.372;2022-12-22T12:35:27;84.03;;;44.23;;
6135;SDS011;24008;42.664;23.372;2022-12-22T12:38:05;90.43;;;44.00;;
6135;SDS011;24008;42.664;23.372;2022-12-22T12:40:41;81.53;;;44.20;;
6135;SDS011;24008;42.664;23.372;2022-12-22T12:43:14;85.07;;;45.77;;
6135;SDS011;24008;42.664;23.372;2022-12-22T12:45:42;86.97;;;44.43;;
6135;SDS011;24008;42.664;23.372;2022-12-22T12:51:03;88.90;;;45.00;;
6135;SDS011;24008;42.664;23.372;2022-12-22T12:54:21;89.17;;;45.73;;
6135;SDS011;24008;42.664;23.372;2022-12-22T12:57:26;87.47;;;46.57;;
6135;SDS011;24008;42.664;23.372;2022-12-22T12:59:54;87.73;;;44.07;;
6135;SDS011;24008;42.664;23.372;2022-12-22T13:02:29;79.70;;;45.57;;
6135;SDS011;24008;42.664;23.372;2022-12-22T13:04:59;82.73;;;45.77;;
6135;SDS011;24008;42.664;23.372;2022-12-22T13:10:33;83.93;;;46.43;;
6135;SDS011;24008;42.664;23.372;2022-12-22T13:13:05;82.80;;;45.87;;
6135;SDS011;24008;42.664;23.372;2022-12-22T13:15:37;93.60;;;47.60;;
6135;SDS011;24008;42.664;23.372;2022-12-22T13:18:08;81.43;;;46.13;;
6135;SDS011;24008;42.664;23.372;2022-12-22T13:20:52;99.77;;;48.10;;
6135;SDS011;24008;42.664;23.372;2022-12-22T13:23:22;96.87;;;48.97;;
6135;SDS011;24008;42.664;23.372;2022-12-22T13:25:54;104.10;;;48.93;;
6135;SDS011;24008;42.664;23.372;2022-12-22T13:28:25;99.23;;;47.07;;
6135;SDS011;24008;42.664;23.372;2022-12-22T13:30:55;85.70;;;46.77;;
6135;SDS011;24008;42.664;23.372;2022-12-22T13:33:28;80.07;;;45.23;;
6135;SDS011;24008;42.664;23.372;2022-12-22T13:35:56;89.50;;;46.13;;
6135;SDS011;24008;42.664;23.372;2022-12-22T13:38:28;85.47;;;46.40;;
6135;SDS011;24008;42.664;23.372;2022-12-22T13:40:56;79.87;;;45.47;;
6135;SDS011;24008;42.664;23.372;2022-12-22T13:43:25;86.17;;;44.67;;
6135;SDS011;24008;42.664;23.372;2022-12-22T13:45:55;85.87;;;44.27;;
6135;SDS011;24008;42.664;23.372;2022-12-22T13:48:23;96.37;;;45.53;;
6135;SDS011;24008;42.664;23.372;2022-12-22T13:50:56;87.47;;;46.07;;
6135;SDS011;24008;42.664;23.372;2022-12-22T13:53:29;85.40;;;45.37;;
6135;SDS011;24008;42.664;23.372;2022-12-22T13:56:19;83.27;;;45.60;;
6135;SDS011;24008;42.664;23.372;2022-12-22T13:58:52;89.10;;;45.40;;
6135;SDS011;24008;42.664;23.372;2022-12-22T14:01:22;94.10;;;46.47;;
6135;SDS011;24008;42.664;23.372;2022-12-22T14:03:51;92.73;;;46.60;;
6135;SDS011;24008;42.664;23.372;2022-12-22T14:06:25;82.23;;;47.37;;
6135;SDS011;24008;42.664;23.372;2022-12-22T14:08:53;85.27;;;45.30;;
6135;SDS011;24008;42.664;23.372;2022-12-22T14:11:35;88.87;;;46.73;;
6135;SDS011;24008;42.664;23.372;2022-12-22T14:14:06;96.00;;;46.33;;
6135;SDS011;24008;42.664;23.372;2022-12-22T14:16:34;81.37;;;46.70;;
6135;SDS011;24008;42.664;23.372;2022-12-22T14:19:09;88.97;;;45.70;;
6135;SDS011;24008;42.664;23.372;2022-12-22T14:21:38;94.83;;;47.03;;
6135;SDS011;24008;42.664;23.372;2022-12-22T14:24:08;90.10;;;47.27;;
6135;SDS011;24008;42.664;23.372;2022-12-22T14:26:37;97.77;;;47.40;;
6135;SDS011;24008;42.664;23.372;2022-12-22T14:29:04;88.93;;;47.37;;
6135;SDS011;24008;42.664;23.372;2022-12-22T14:31:50;88.90;;;47.57;;
6135;SDS011;24008;42.664;23.372;2022-12-22T14:34:25;85.77;;;46.93;;
6135;SDS011;24008;42.664;23.372;2022-12-22T14:36:53;88.73;;;46.80;;
6135;SDS011;24008;42.664;23.372;2022-12-22T14:39:20;85.97;;;45.00;;
6135;SDS011;24008;42.664;23.372;2022-12-22T14:41:50;91.57;;;46.53;;
6135;SDS011;24008;42.664;23.372;2022-12-22T14:44:21;96.17;;;45.40;;
6135;SDS011;24008;42.664;23.372;2022-12-22T14:47:09;85.03;;;44.50;;
6135;SDS011;24008;42.664;23.372;2022-12-22T14:49:46;87.93;;;47.07;;
6135;SDS011;24008;42.664;23.372;2022-12-22T14:52:17;93.13;;;47.80;;
6135;SDS011;24008;42.664;23.372;2022-12-22T14:54:47;97.20;;;47.97;;
6135;SDS011;24008;42.664;23.372;2022-12-22T14:57:19;101.90;;;46.77;;
6135;SDS011;24008;42.664;23.372;2022-12-22T15:00:03;87.20;;;45.27;;
6135;SDS011;24008;42.664;23.372;2022-12-22T15:02:33;97.37;;;44.80;;
6135;SDS011;24008;42.664;23.372;2022-12-22T15:05:08;104.30;;;47.80;;
6135;SDS011;24008;42.664;23.372;2022-12-22T15:07:43;82.10;;;41.87;;
6135;SDS011;24008;42.664;23.372;2022-12-22T15:10:12;95.70;;;46.20;;
6135;SDS011;24008;42.664;23.372;2022-12-22T15:12:39;91.83;;;46.40;;
6135;SDS011;24008;42.664;23.372;2022-12-22T15:15:12;87.67;;;46.43;;